Time;durP1;ratioP1;P1;durP2;ratioP2;P2;SDS_P1;SDS_P2;PMS_P1;PMS_P2;Temp;Humidity;BMP_temperature;BMP_pressure;BME280_temperature;BME280_humidity;BME280_pressure;Samples;Min_cycle;Max_cycle;Signal;HPM_P1;HPM_P2
2023/08/05 00:01:21;;;;;;;10.98;8.85;;;;;;;26.38;47.01;96910.91;10286031;28;20038;-51
2023/08/05 00:06:20;;;;;;;13.00;9.55;;;;;;;26.45;46.50;96902.31;10287660;28;20487;-51
2023/08/05 00:11:20;;;;;;;12.45;10.50;;;;;;;26.47;47.37;96897.72;10281218;28;20462;-50
2023/08/05 00:16:19;;;;;;;11.80;9.50;;;;;;;26.39;47.29;96897.47;10279103;28;20159;-50
2023/08/05 00:21:18;;;;;;;12.30;8.95;;;;;;;26.23;46.54;96881.88;10280744;28;20136;-49
2023/08/05 00:26:17;;;;;;;9.63;8.30;;;;;;;26.39;45.17;96875.34;10280725;28;20487;-51
2023/08/05 00:31:16;;;;;;;11.00;8.57;;;;;;;26.46;44.29;96877.38;10280530;28;20160;-51
2023/08/05 00:36:15;;;;;;;11.77;9.18;;;;;;;26.53;44.71;96867.97;10279966;28;20022;-48
2023/08/05 00:41:14;;;;;;;12.43;9.65;;;;;;;26.58;44.92;96864.91;10278132;28;20029;-50
2023/08/05 00:46:13;;;;;;;12.93;9.13;;;;;;;26.45;45.47;96859.75;10278984;28;20582;-51
2023/08/05 00:51:13;;;;;;;10.50;8.65;;;;;;;26.44;45.39;96862.50;10277124;28;20534;-51
2023/08/05 00:56:12;;;;;;;9.68;8.68;;;;;;;26.43;45.71;96876.78;10277125;28;20105;-50
2023/08/05 01:01:11;;;;;;;10.88;9.75;;;;;;;26.29;46.74;96860.09;10279757;28;20106;-51
2023/08/05 01:06:11;;;;;;;12.57;9.68;;;;;;;25.99;47.40;96834.06;10278266;28;20109;-50
2023/08/05 01:11:11;;;;;;;12.85;10.20;;;;;;;25.91;48.17;96857.75;10282342;28;20140;-48
2023/08/05 01:16:10;;;;;;;10.35;9.30;;;;;;;25.77;48.23;96856.16;10287309;28;20144;-50
2023/08/05 01:21:16;;;;;;;10.68;9.60;;;;;;;25.74;47.82;96854.59;10284905;28;20043;-51
2023/08/05 01:26:15;;;;;;;12.05;9.73;;;;;;;25.71;48.21;96849.53;10287642;28;20069;-49
2023/08/05 01:31:15;;;;;;;12.85;10.52;;;;;;;25.61;48.58;96856.50;10285018;28;20085;-49
2023/08/05 01:36:21;;;;;;;11.30;10.02;;;;;;;25.54;48.64;96847.28;10287922;28;20105;-51
2023/08/05 01:41:19;;;;;;;11.63;10.40;;;;;;;25.44;49.48;96847.13;10285013;28;20124;-49
2023/08/05 01:46:18;;;;;;;16.63;10.65;;;;;;;25.27;50.12;96848.41;10284977;28;20029;-51
2023/08/05 01:51:17;;;;;;;12.45;9.88;;;;;;;25.13;50.27;96832.66;10287327;28;20041;-48
2023/08/05 01:56:16;;;;;;;11.55;10.23;;;;;;;25.02;50.75;96829.94;10289148;28;20104;-51
2023/08/05 02:01:15;;;;;;;13.00;10.40;;;;;;;24.89;51.31;96835.31;10279394;28;20531;-50
2023/08/05 02:06:14;;;;;;;12.85;10.55;;;;;;;24.75;51.65;96848.69;10286034;28;20530;-51
2023/08/05 02:11:13;;;;;;;13.30;10.57;;;;;;;24.65;51.62;96848.53;10287936;28;20034;-49
2023/08/05 02:16:12;;;;;;;10.98;9.82;;;;;;;24.54;51.82;96844.00;10284225;28;20032;-54
2023/08/05 02:21:11;;;;;;;11.15;10.05;;;;;;;24.51;51.97;96846.03;10280898;28;20756;-52
2023/08/05 02:26:10;;;;;;;11.68;9.57;;;;;;;24.47;51.97;96846.25;10286821;28;20072;-51
2023/08/05 02:31:09;;;;;;;14.38;10.10;;;;;;;24.38;51.77;96838.97;10287464;28;20574;-50
2023/08/05 02:36:10;;;;;;;11.65;9.00;;;;;;;23.79;51.64;96743.28;10290247;28;20037;-51
2023/08/05 02:41:09;;;;;;;10.73;9.18;;;;;;;24.38;50.63;96822.19;10288507;28;20095;-49
2023/08/05 02:46:08;;;;;;;11.68;9.63;;;;;;;24.41;50.51;96825.47;10287837;28;20109;-50
2023/08/05 02:51:06;;;;;;;10.50;8.50;;;;;;;24.47;49.96;96835.66;10287215;28;20087;-51
2023/08/05 02:56:06;;;;;;;11.40;8.85;;;;;;;24.57;49.69;96840.28;10285859;28;20113;-52
2023/08/05 03:01:09;;;;;;;13.40;9.30;;;;;;;23.63;50.75;96679.94;10289787;28;20069;-50
2023/08/05 03:06:08;;;;;;;11.10;9.70;;;;;;;24.54;51.37;96830.72;10288811;28;20056;-51
2023/08/05 03:11:06;;;;;;;12.95;10.63;;;;;;;24.32;52.48;96831.44;10288182;28;20018;-48
2023/08/05 03:16:11;;;;;;;12.57;9.45;;;;;;;24.24;52.47;96828.50;10288801;28;20121;-52
2023/08/05 03:21:10;;;;;;;10.18;8.27;;;;;;;24.23;51.19;96824.97;10287381;28;20080;-50
2023/08/05 03:26:08;;;;;;;11.25;8.70;;;;;;;24.29;50.79;96821.06;10289440;28;20093;-49
2023/08/05 03:31:07;;;;;;;13.75;9.00;;;;;;;24.28;49.92;96819.34;10283761;28;20056;-50
2023/08/05 03:36:06;;;;;;;12.10;8.63;;;;;;;24.42;49.68;96821.84;10284785;28;20022;-50
2023/08/05 03:41:05;;;;;;;13.70;8.40;;;;;;;24.47;49.15;96819.75;10281391;28;20046;-51
2023/08/05 03:46:04;;;;;;;11.45;8.93;;;;;;;24.55;49.80;96824.47;10285218;28;20510;-51
2023/08/05 03:51:03;;;;;;;11.07;8.75;;;;;;;24.51;49.82;96827.47;10283546;28;20026;-51
2023/08/05 03:56:02;;;;;;;12.68;8.95;;;;;;;24.60;49.30;96825.00;10285176;28;20117;-51
2023/08/05 04:01:01;;;;;;;10.93;8.52;;;;;;;24.73;48.87;96832.03;10282716;28;20069;-52
2023/08/05 04:06:00;;;;;;;11.27;8.55;;;;;;;24.88;48.85;96831.81;10283359;28;20058;-50
2023/08/05 04:11:00;;;;;;;16.92;9.10;;;;;;;24.96;49.30;96830.41;10287225;28;20021;-51
2023/08/05 04:16:03;;;;;;;19.48;12.68;;;;;;;24.96;49.87;96838.34;10282680;28;20137;-51
2023/08/05 04:21:04;;;;;;;16.73;10.05;;;;;;;25.09;50.38;96844.47;10282708;28;20065;-51
2023/08/05 04:26:04;;;;;;;12.77;9.73;;;;;;;25.16;50.39;96840.38;10282978;28;20072;-52
2023/08/05 04:31:03;;;;;;;11.52;9.40;;;;;;;25.19;49.38;96832.19;10280424;28;20069;-52
2023/08/05 04:36:03;;;;;;;10.75;8.80;;;;;;;25.32;48.99;96838.28;10281498;28;20030;-51
2023/08/05 04:41:02;;;;;;;12.30;8.98;;;;;;;25.44;49.48;96841.81;10282648;28;20126;-52
2023/08/05 04:46:00;;;;;;;10.25;8.98;;;;;;;25.56;49.77;96845.38;10285337;28;20014;-50
2023/08/05 04:50:59;;;;;;;11.02;8.85;;;;;;;25.62;48.96;96862.66;10281095;28;20128;-51
2023/08/05 04:55:58;;;;;;;12.35;8.90;;;;;;;25.67;48.67;96857.84;10281084;28;20022;-51
2023/08/05 05:00:57;;;;;;;11.00;9.30;;;;;;;25.76;48.91;96858.94;10282555;28;20126;-52
2023/08/05 05:05:56;;;;;;;12.40;9.15;;;;;;;25.72;49.04;96843.25;10281200;28;20062;-51
2023/08/05 05:10:55;;;;;;;12.57;9.65;;;;;;;25.75;49.98;96866.06;10280593;28;20024;-51
2023/08/05 05:15:55;;;;;;;14.48;9.30;;;;;;;25.78;49.95;96864.97;10280996;28;20140;-49
2023/08/05 05:20:54;;;;;;;10.65;9.10;;;;;;;25.90;50.31;96866.69;10280359;28;20068;-50
2023/08/05 05:25:53;;;;;;;10.68;8.77;;;;;;;26.04;50.52;96863.84;10281642;28;20080;-51
2023/08/05 05:30:52;;;;;;;13.98;9.32;;;;;;;26.24;49.59;96861.44;10280613;28;20040;-50
2023/08/05 05:35:51;;;;;;;10.05;7.45;;;;;;;26.41;48.27;96860.94;10284785;28;20117;-49
2023/08/05 05:40:56;;;;;;;9.85;7.07;;;;;;;26.54;47.31;96847.53;10279917;28;20057;-49
2023/08/05 05:45:55;;;;;;;12.57;7.53;;;;;;;26.78;45.92;96842.03;10281206;28;20125;-51
2023/08/05 05:50:54;;;;;;;10.43;7.03;;;;;;;26.92;44.78;96840.94;10281380;28;20061;-51
2023/08/05 05:55:53;;;;;;;10.20;7.05;;;;;;;27.17;44.14;96845.94;10279690;28;20033;-49
2023/08/05 06:00:55;;;;;;;8.85;7.35;;;;;;;27.44;43.71;96841.09;10287660;28;20060;-50
2023/08/05 06:05:58;;;;;;;7.50;6.63;;;;;;;27.46;42.62;96796.50;10286988;28;20077;-51
2023/08/05 06:11:03;;;;;;;12.63;7.68;;;;;;;27.80;43.08;96829.16;10288720;28;20125;-52
2023/08/05 06:16:02;;;;;;;20.35;8.07;;;;;;;27.99;42.60;96818.59;10287168;28;20141;-51
2023/08/05 06:21:01;;;;;;;13.35;7.20;;;;;;;28.08;42.51;96809.00;10283468;28;20049;-51
2023/08/05 06:26:00;;;;;;;10.63;6.57;;;;;;;28.11;41.79;96806.03;10292320;28;20040;-52
2023/08/05 06:30:59;;;;;;;9.90;6.72;;;;;;;28.35;42.26;96811.03;10284935;28;20523;-51
2023/08/05 06:35:58;;;;;;;11.00;7.20;;;;;;;28.54;41.36;96799.56;10286670;28;20026;-51
2023/08/05 06:40:57;;;;;;;9.55;7.00;;;;;;;28.74;40.84;96792.47;10285851;28;20112;-51
2023/08/05 06:45:56;;;;;;;11.32;7.60;;;;;;;28.99;40.63;96788.44;10284812;28;20021;-52
2023/08/05 06:50:55;;;;;;;10.05;7.20;;;;;;;29.24;40.65;96778.97;10287446;28;20065;-52
2023/08/05 06:56:01;;;;;;;16.50;8.77;;;;;;;29.29;39.97;96774.09;10286055;28;20046;-52
2023/08/05 07:01:00;;;;;;;19.27;8.27;;;;;;;29.37;39.81;96765.38;10286776;28;20070;-51
2023/08/05 07:05:59;;;;;;;9.45;6.97;;;;;;;29.52;39.21;96772.94;10282561;28;20044;-51
2023/08/05 07:10:58;;;;;;;9.98;7.82;;;;;;;29.69;38.79;96756.97;10284124;28;20052;-53
2023/08/05 07:16:01;;;;;;;10.55;7.90;;;;;;;29.86;38.93;96763.44;10285231;28;20134;-52
2023/08/05 07:21:01;;;;;;;8.20;6.65;;;;;;;30.05;38.94;96756.34;10285600;28;20065;-51
2023/08/05 07:26:01;;;;;;;11.75;7.65;;;;;;;30.11;38.49;96758.41;10285849;28;20088;-52
2023/08/05 07:31:04;;;;;;;10.32;7.32;;;;;;;30.24;38.44;96750.88;10282141;28;20084;-51
2023/08/05 07:36:11;;;;;;;30.52;9.45;;;;;;;30.37;37.94;96750.50;10287747;28;20069;-51
2023/08/05 07:41:11;;;;;;;13.07;7.80;;;;;;;30.53;38.02;96753.41;10285505;28;20069;-51
2023/08/05 07:46:13;;;;;;;11.45;7.53;;;;;;;30.70;37.55;96758.94;10286339;28;20073;-53
2023/08/05 07:51:12;;;;;;;15.43;7.97;;;;;;;30.91;37.55;96747.91;10286146;28;20069;-51
2023/08/05 07:56:12;;;;;;;10.57;7.65;;;;;;;31.05;36.99;96747.41;10285676;28;20065;-52
2023/08/05 08:01:13;;;;;;;8.63;7.13;;;;;;;31.28;36.38;96733.53;10287107;28;20617;-50
2023/08/05 08:06:15;;;;;;;10.90;7.80;;;;;;;31.41;36.20;96739.31;10285253;28;20069;-51
2023/08/05 08:11:14;;;;;;;12.05;8.35;;;;;;;31.50;35.62;96735.72;10285560;28;20515;-52
2023/08/05 08:16:15;;;;;;;8.48;7.57;;;;;;;31.65;35.39;96717.22;10287434;28;20460;-51
2023/08/05 08:21:14;;;;;;;8.43;7.30;;;;;;;31.85;34.91;96719.66;10284746;28;20096;-52
2023/08/05 08:26:13;;;;;;;8.43;7.03;;;;;;;31.88;34.09;96709.44;10286123;28;20104;-51
2023/08/05 08:31:12;;;;;;;10.93;7.70;;;;;;;32.07;34.51;96715.59;10279855;28;20042;-51
2023/08/05 08:36:11;;;;;;;8.38;7.32;;;;;;;32.19;34.24;96704.38;10282291;28;20030;-52
2023/08/05 08:41:10;;;;;;;8.15;7.35;;;;;;;32.21;34.21;96685.44;10280710;28;20069;-52
2023/08/05 08:46:11;;;;;;;10.27;8.15;;;;;;;32.28;34.56;96678.41;10281506;28;20105;-52
2023/08/05 08:51:11;;;;;;;8.82;7.93;;;;;;;32.47;34.38;96679.13;10282698;28;20073;-52
2023/08/05 08:56:10;;;;;;;7.90;7.00;;;;;;;32.72;34.51;96674.69;10282861;28;20069;-52
2023/08/05 09:01:12;;;;;;;8.05;7.18;;;;;;;32.94;33.80;96678.53;10283370;28;20145;-50
2023/08/05 09:06:11;;;;;;;9.35;7.35;;;;;;;33.20;33.62;96667.63;10282784;28;20076;-52
2023/08/05 09:11:10;;;;;;;14.07;8.10;;;;;;;33.38;33.07;96667.44;10279869;28;20026;-50
2023/08/05 09:16:13;;;;;;;9.02;7.60;;;;;;;33.47;31.89;96666.41;10282557;28;20032;-52
2023/08/05 09:21:21;;;;;;;8.20;7.30;;;;;;;33.53;31.77;96667.53;10280602;28;20483;-51
2023/08/05 09:26:29;;;;;;;;;;;;;;;33.63;31.61;96677.13;10278969;28;20124;-50
2023/08/05 09:31:29;;;;;;;12.45;7.35;;;;;;;33.86;31.84;96676.38;10280469;28;20024;-49
2023/08/05 09:36:30;;;;;;;8.23;7.00;;;;;;;33.98;30.86;96663.38;10283237;28;20088;-54
2023/08/05 09:41:32;;;;;;;8.30;7.43;;;;;;;34.11;30.53;96658.28;10286139;28;20117;-53
2023/08/05 09:46:40;;;;;;;17.23;7.68;;;;;;;34.22;30.88;96659.75;10286329;28;20125;-52
2023/08/05 09:51:45;;;;;;;7.53;6.72;;;;;;;34.35;30.75;96662.69;10284853;28;20077;-52
2023/08/05 09:56:45;;;;;;;8.65;7.10;;;;;;;34.41;30.14;96643.13;10282096;28;20133;-52
2023/08/05 10:01:46;;;;;;;10.43;7.50;;;;;;;34.29;30.29;96626.56;10287219;28;20126;-51
2023/08/05 10:06:46;;;;;;;8.63;7.07;;;;;;;34.51;30.19;96626.72;10285210;28;20125;-50
2023/08/05 10:11:47;;;;;;;8.68;6.97;;;;;;;34.76;29.84;96646.28;10284377;28;20069;-51
2023/08/05 10:16:46;;;;;;;11.60;7.38;;;;;;;34.86;28.96;96636.06;10283578;28;20112;-52
2023/08/05 10:21:45;;;;;;;12.88;8.02;;;;;;;34.97;28.61;96628.59;10285369;28;20076;-49
2023/08/05 10:26:45;;;;;;;8.85;7.10;;;;;;;35.07;28.74;96632.69;10281099;28;20205;-49
2023/08/05 10:31:47;;;;;;;8.55;7.00;;;;;;;35.20;28.52;96623.16;10285421;28;20085;-52
2023/08/05 10:36:49;;;;;;;8.07;7.10;;;;;;;35.39;28.76;96624.50;10292564;28;20465;-51
2023/08/05 10:41:48;;;;;;;8.73;7.40;;;;;;;35.53;28.22;96604.78;10285840;28;20488;-51
2023/08/05 10:46:47;;;;;;;10.88;6.63;;;;;;;35.78;27.88;96616.09;10287309;28;20530;-50
2023/08/05 10:51:46;;;;;;;10.70;7.13;;;;;;;35.98;27.43;96605.56;10285720;28;20409;-51
2023/08/05 10:56:46;;;;;;;8.73;7.55;;;;;;;36.06;27.77;96596.50;10288321;28;20459;-51
2023/08/05 11:01:53;;;;;;;8.65;7.32;;;;;;;36.16;27.14;96589.81;10286569;28;20057;-51
2023/08/05 11:06:53;;;;;;;10.77;7.43;;;;;;;36.44;27.25;96586.34;10275645;28;20065;-50
2023/08/05 11:11:52;;;;;;;8.50;6.93;;;;;;;36.62;26.45;96587.78;10286760;28;20176;-53
2023/08/05 11:16:51;;;;;;;9.70;7.00;;;;;;;36.65;26.35;96546.84;10283906;28;20526;-50
2023/08/05 11:21:50;;;;;;;8.18;7.30;;;;;;;36.95;26.31;96561.00;10282363;28;20105;-50
2023/08/05 11:26:49;;;;;;;7.75;6.95;;;;;;;37.19;25.54;96557.88;10283912;28;20065;-51
2023/08/05 11:31:52;;;;;;;7.50;6.80;;;;;;;37.37;25.34;96546.50;10279477;28;20241;-49
2023/08/05 11:36:55;;;;;;;8.18;7.38;;;;;;;37.20;25.36;96494.63;10281623;28;20555;-52
2023/08/05 11:41:54;;;;;;;8.25;6.78;;;;;;;37.75;25.21;96550.66;10277061;28;20125;-52
2023/08/05 11:46:53;;;;;;;9.40;6.63;;;;;;;37.87;25.25;96546.34;10279891;28;20030;-51
2023/08/05 11:51:53;;;;;;;7.50;6.75;;;;;;;37.87;24.85;96545.50;10282089;28;20113;-51
2023/08/05 11:56:52;;;;;;;7.55;6.80;;;;;;;37.93;24.37;96537.44;10271414;28;20203;-52
2023/08/05 12:01:51;;;;;;;13.15;7.47;;;;;;;38.12;24.97;96527.69;10277088;28;20563;-51
2023/08/05 12:06:50;;;;;;;8.95;7.07;;;;;;;38.26;24.70;96532.06;10270931;28;20112;-50
2023/08/05 12:11:55;;;;;;;8.80;6.68;;;;;;;38.34;24.25;96527.53;10266782;28;20040;-50
2023/08/05 12:16:59;;;;;;;10.98;7.15;;;;;;;38.37;24.51;96484.59;10278751;28;20124;-52
2023/08/05 12:21:58;;;;;;;9.95;7.00;;;;;;;38.73;24.15;96507.72;10279041;28;20117;-51
2023/08/05 12:26:57;;;;;;;8.30;7.50;;;;;;;38.75;23.69;96496.66;10277024;28;20112;-52
2023/08/05 12:31:56;;;;;;;8.75;7.10;;;;;;;38.73;23.92;96488.72;10273927;28;20149;-53
2023/08/05 12:36:54;;;;;;;11.80;7.32;;;;;;;38.77;23.66;96489.16;10274638;28;20064;-51
2023/08/05 12:41:54;;;;;;;9.45;7.07;;;;;;;38.89;23.83;96477.47;10272008;28;20054;-52
2023/08/05 12:46:53;;;;;;;14.13;7.10;;;;;;;38.88;23.48;96464.13;10275585;28;20025;-51
2023/08/05 12:51:52;;;;;;;10.00;6.68;;;;;;;38.98;23.54;96467.22;10275476;28;20072;-50
2023/08/05 12:56:51;;;;;;;10.82;7.15;;;;;;;38.99;23.68;96454.50;10276100;28;20470;-50
2023/08/05 13:01:50;;;;;;;40.28;9.57;;;;;;;39.12;24.17;96454.47;10279473;28;20030;-51
2023/08/05 13:06:49;;;;;;;8.20;6.90;;;;;;;38.98;24.11;96385.84;10281002;28;21169;-52
2023/08/05 13:11:48;;;;;;;9.27;7.20;;;;;;;39.36;23.33;96436.66;10284497;28;20164;-50
2023/08/05 13:16:47;;;;;;;19.23;7.78;;;;;;;39.41;23.55;96414.28;10284896;28;20059;-51
2023/08/05 13:21:47;;;;;;;9.57;6.70;;;;;;;39.53;23.25;96422.56;10286915;28;20057;-49
2023/08/05 13:26:46;;;;;;;7.55;6.43;;;;;;;39.68;23.49;96418.53;10289417;28;20125;-51
2023/08/05 13:31:45;;;;;;;8.57;6.65;;;;;;;39.80;23.63;96418.69;10284224;28;20049;-52
2023/08/05 13:36:44;;;;;;;7.80;6.65;;;;;;;40.08;22.98;96406.56;10281786;28;20046;-51
2023/08/05 13:41:43;;;;;;;8.18;6.70;;;;;;;40.03;22.92;96411.84;10283608;28;20038;-49
2023/08/05 13:46:43;;;;;;;9.63;6.93;;;;;;;39.91;22.71;96398.13;10281291;28;20447;-51
2023/08/05 13:51:42;;;;;;;7.68;6.60;;;;;;;39.60;22.48;96393.50;10284288;28;20117;-51
2023/08/05 13:56:41;;;;;;;7.72;6.93;;;;;;;39.42;22.81;96378.78;10285049;28;20635;-51
2023/08/05 14:01:42;;;;;;;9.23;6.63;;;;;;;39.36;23.66;96370.69;10287214;28;20049;-49
2023/08/05 14:06:41;;;;;;;7.90;6.80;;;;;;;39.36;23.32;96367.97;10283671;28;20188;-51
2023/08/05 14:11:40;;;;;;;9.10;6.97;;;;;;;39.21;23.71;96357.38;10283237;28;20112;-51
2023/08/05 14:16:39;;;;;;;8.90;6.80;;;;;;;39.31;22.94;96349.63;10284829;28;20109;-53
2023/08/05 14:21:38;;;;;;;16.50;7.10;;;;;;;39.29;23.19;96336.25;10281418;28;20022;-52
2023/08/05 14:26:37;;;;;;;8.65;7.35;;;;;;;39.02;23.40;96296.75;10286655;28;20459;-51
2023/08/05 14:31:36;;;;;;;9.63;6.32;;;;;;;38.88;23.11;96315.81;10286491;28;20534;-51
2023/08/05 14:36:35;;;;;;;8.50;6.32;;;;;;;38.76;23.08;96282.25;10282656;28;20148;-51
2023/08/05 14:41:34;;;;;;;7.88;7.18;;;;;;;38.87;23.77;96305.16;10280604;28;20128;-51
2023/08/05 14:46:33;;;;;;;8.43;7.22;;;;;;;38.98;22.98;96299.06;10280341;28;20030;-52
2023/08/05 14:51:32;;;;;;;8.88;7.55;;;;;;;38.47;22.79;96297.97;10280140;28;20567;-50
2023/08/05 14:56:31;;;;;;;8.38;7.47;;;;;;;38.45;23.60;96291.97;10283688;28;20563;-53
2023/08/05 15:01:30;;;;;;;8.80;7.90;;;;;;;38.04;25.15;96290.34;10281514;28;20076;-52
2023/08/05 15:06:29;;;;;;;8.02;7.22;;;;;;;37.88;25.30;96287.22;10284557;28;20088;-50
2023/08/05 15:11:29;;;;;;;10.05;8.18;;;;;;;37.82;26.01;96276.19;10283843;28;20448;-51
2023/08/05 15:16:29;;;;;;;9.13;7.97;;;;;;;37.60;26.32;96261.19;10281486;28;20870;-52
2023/08/05 15:21:29;;;;;;;10.10;8.05;;;;;;;37.35;26.81;96253.69;10282637;28;20136;-50
2023/08/05 15:26:27;;;;;;;10.32;7.35;;;;;;;37.27;25.76;96253.88;10281601;28;20136;-51
2023/08/05 15:31:26;;;;;;;9.95;7.03;;;;;;;37.23;24.17;96250.75;10279017;28;20133;-51
2023/08/05 15:36:25;;;;;;;9.43;6.85;;;;;;;37.09;24.31;96238.25;10281999;28;20166;-50
2023/08/05 15:41:24;;;;;;;10.38;7.10;;;;;;;37.12;24.75;96245.09;10282001;28;20433;-50
2023/08/05 15:46:23;;;;;;;8.88;7.00;;;;;;;37.07;24.31;96237.59;10281434;28;20048;-51
2023/08/05 15:51:22;;;;;;;8.57;6.90;;;;;;;37.10;24.82;96244.50;10279137;28;20056;-51
2023/08/05 15:56:21;;;;;;;8.38;7.05;;;;;;;36.99;24.63;96238.59;10281714;28;20045;-51
2023/08/05 16:01:20;;;;;;;10.90;6.80;;;;;;;36.99;24.92;96230.50;10279662;28;20038;-50
2023/08/05 16:06:19;;;;;;;12.63;6.47;;;;;;;36.78;25.11;96231.50;10279207;28;20030;-51
2023/08/05 16:11:18;;;;;;;10.18;6.93;;;;;;;36.49;24.86;96205.59;10281493;28;20113;-51
2023/08/05 16:16:17;;;;;;;9.85;6.57;;;;;;;36.40;25.18;96223.03;10279636;28;20042;-49
2023/08/05 16:21:21;;;;;;;12.90;6.97;;;;;;;36.02;25.74;96226.16;10280707;28;20081;-52
2023/08/05 16:26:22;;;;;;;11.63;6.82;;;;;;;36.00;25.89;96221.97;10280656;28;20139;-50
2023/08/05 16:31:23;;;;;;;8.75;6.85;;;;;;;35.95;26.46;96215.31;10278328;28;20065;-51
2023/08/05 16:36:22;;;;;;;12.20;7.63;;;;;;;35.84;27.43;96212.34;10280275;28;20141;-51
2023/08/05 16:41:21;;;;;;;11.15;7.35;;;;;;;35.65;27.07;96208.47;10277011;28;21635;-49
2023/08/05 16:46:20;;;;;;;7.35;5.75;;;;;;;35.37;27.43;96203.88;10282583;28;20124;-51
2023/08/05 16:51:19;;;;;;;9.98;6.38;;;;;;;35.08;27.21;96194.03;10282029;28;20048;-51
2023/08/05 16:56:18;;;;;;;8.00;6.10;;;;;;;34.87;27.47;96195.75;10278147;28;20124;-50
2023/08/05 17:01:17;;;;;;;9.60;7.00;;;;;;;34.61;28.14;96184.66;10280706;28;20125;-52
2023/08/05 17:06:16;;;;;;;7.97;6.22;;;;;;;34.16;27.85;96192.00;10276169;28;20133;-53
2023/08/05 17:11:15;;;;;;;9.13;6.13;;;;;;;33.80;28.58;96190.03;10276436;28;20041;-49
2023/08/05 17:16:14;;;;;;;8.65;6.70;;;;;;;33.55;28.24;96195.63;10277894;28;20116;-50
2023/08/05 17:21:13;;;;;;;9.65;5.68;;;;;;;33.34;28.49;96188.28;10279163;28;20116;-54
2023/08/05 17:26:12;;;;;;;9.02;6.38;;;;;;;33.19;28.70;96188.25;10277210;28;20109;-51
2023/08/05 17:31:11;;;;;;;10.70;6.80;;;;;;;32.92;28.88;96178.03;10285335;28;20052;-52
2023/08/05 17:36:10;;;;;;;10.43;5.97;;;;;;;32.71;28.99;96163.41;10280769;28;20030;-52
2023/08/05 17:41:09;;;;;;;11.05;6.30;;;;;;;32.36;29.67;96146.81;10281833;28;20053;-52
2023/08/05 17:46:09;;;;;;;11.65;6.25;;;;;;;32.11;30.01;96142.63;10278829;28;20062;-52
2023/08/05 17:51:08;;;;;;;13.02;6.72;;;;;;;31.61;30.51;96108.94;10281544;28;20429;-51
2023/08/05 17:56:07;;;;;;;9.02;5.72;;;;;;;31.45;30.12;96139.28;10286662;28;20297;-50
2023/08/05 18:01:06;;;;;;;6.68;5.53;;;;;;;31.25;29.08;96131.63;10289109;28;20443;-52
2023/08/05 18:06:05;;;;;;;9.90;5.72;;;;;;;31.28;29.85;96138.50;10288029;28;20088;-50
2023/08/05 18:11:04;;;;;;;9.70;6.40;;;;;;;30.99;29.82;96139.88;10285735;28;20116;-50
2023/08/05 18:16:03;;;;;;;8.90;6.25;;;;;;;30.99;29.83;96152.44;10289008;28;20120;-51
2023/08/05 18:21:02;;;;;;;10.63;6.57;;;;;;;30.87;30.08;96138.53;10284639;28;20061;-50
2023/08/05 18:26:01;;;;;;;12.35;6.75;;;;;;;30.67;30.67;96146.03;10288001;28;20050;-52
2023/08/05 18:31:00;;;;;;;10.05;6.40;;;;;;;30.44;31.88;96156.53;10284798;28;20046;-52
2023/08/05 18:36:02;;;;;;;8.18;5.88;;;;;;;30.15;31.76;96147.09;10280291;28;20038;-55
2023/08/05 18:41:03;;;;;;;9.23;6.20;;;;;;;29.81;33.59;96161.34;10282762;28;20156;-51
2023/08/05 18:46:02;;;;;;;8.13;5.75;;;;;;;29.62;33.60;96170.41;10282186;28;20106;-49
2023/08/05 18:51:02;;;;;;;11.45;6.85;;;;;;;29.49;34.72;96178.03;10283329;28;20128;-52
2023/08/05 18:56:01;;;;;;;11.30;6.38;;;;;;;29.16;35.39;96185.81;10284272;28;20074;-52
2023/08/05 19:01:06;;;;;;;10.93;7.60;;;;;;;28.97;35.88;96201.97;10284153;28;20061;-51
2023/08/05 19:06:04;;;;;;;9.43;6.40;;;;;;;28.70;37.46;96200.25;10279244;28;20143;-52
2023/08/05 19:11:03;;;;;;;10.20;5.90;;;;;;;28.47;37.28;96206.00;10281871;28;21432;-54
2023/08/05 19:16:03;;;;;;;8.48;5.80;;;;;;;28.03;36.50;96188.00;10283689;28;20598;-51
2023/08/05 19:21:05;;;;;;;8.25;5.80;;;;;;;28.08;36.13;96182.25;10282600;28;20124;-50
2023/08/05 19:26:05;;;;;;;11.82;6.28;;;;;;;28.24;36.89;96208.25;10295089;28;20516;-51
2023/08/05 19:31:06;;;;;;;10.25;6.00;;;;;;;28.07;36.62;96196.56;10283781;28;20225;-49
2023/08/05 19:36:10;;;;;;;8.25;5.95;;;;;;;28.14;36.32;96197.63;10279606;28;20472;-52
2023/08/05 19:41:10;;;;;;;8.63;5.80;;;;;;;28.12;36.77;96220.94;10281258;28;21202;-51
2023/08/05 19:46:13;;;;;;;10.13;6.15;;;;;;;27.81;37.92;96237.19;10282376;28;20567;-53
2023/08/05 19:51:13;;;;;;;11.50;6.57;;;;;;;27.97;37.79;96246.41;10280150;28;20508;-51
2023/08/05 19:56:12;;;;;;;7.03;5.35;;;;;;;27.90;36.99;96261.31;10281176;28;20188;-49
2023/08/05 20:01:11;;;;;;;7.30;5.35;;;;;;;27.91;37.41;96257.66;10280647;28;20049;-52
2023/08/05 20:06:10;;;;;;;8.32;5.35;;;;;;;28.09;37.14;96250.59;10282296;28;20471;-47
2023/08/05 20:11:11;;;;;;;9.27;4.97;;;;;;;28.26;36.92;96246.28;10280538;28;20381;-52
2023/08/05 20:16:10;;;;;;;6.93;4.88;;;;;;;28.33;36.66;96260.72;10278925;28;20144;-50
2023/08/05 20:21:09;;;;;;;11.30;4.70;;;;;;;28.39;36.83;96267.28;10278792;28;20799;-49
2023/08/05 20:26:11;;;;;;;8.25;5.38;;;;;;;28.46;36.76;96295.06;10278855;28;20129;-54
2023/08/05 20:31:17;;;;;;;9.50;4.90;;;;;;;28.42;36.95;96286.50;10279669;28;20072;-52
2023/08/05 20:36:16;;;;;;;6.93;4.72;;;;;;;28.57;37.32;96320.69;10280546;28;20065;-52
2023/08/05 20:41:15;;;;;;;8.95;4.45;;;;;;;28.63;37.35;96334.28;10277192;28;20048;-53
2023/08/05 20:46:14;;;;;;;12.60;4.68;;;;;;;28.59;38.08;96332.06;10281420;28;20125;-51
2023/08/05 20:51:17;;;;;;;8.20;4.43;;;;;;;28.41;38.37;96337.38;10278837;28;20030;-51
2023/08/05 20:56:16;;;;;;;16.77;4.57;;;;;;;28.49;39.05;96371.31;10277280;28;20076;-53
2023/08/05 21:01:15;;;;;;;8.07;4.25;;;;;;;28.45;38.83;96398.28;10278663;28;20032;-52
2023/08/05 21:06:14;;;;;;;10.93;3.85;;;;;;;28.38;38.43;96409.66;10279444;28;20056;-52
2023/08/05 21:11:13;;;;;;;5.47;3.90;;;;;;;28.17;38.80;96410.75;10278789;28;20446;-52
2023/08/05 21:16:12;;;;;;;7.72;3.97;;;;;;;27.86;39.11;96395.88;10278252;28;20035;-52
2023/08/05 21:21:13;;;;;;;12.88;4.13;;;;;;;27.68;39.30;96423.25;10277378;28;20423;-49
2023/08/05 21:26:12;;;;;;;7.05;3.97;;;;;;;27.66;39.45;96446.53;10270528;28;20113;-49
2023/08/05 21:31:12;;;;;;;8.60;4.50;;;;;;;27.28;39.45;96456.13;10279728;28;20172;-51
2023/08/05 21:36:11;;;;;;;6.47;3.65;;;;;;;27.23;39.88;96461.00;10302744;28;20192;-51
2023/08/05 21:41:10;;;;;;;6.55;3.75;;;;;;;27.16;40.50;96454.56;10281507;28;20129;-52
2023/08/05 21:46:09;;;;;;;8.75;4.32;;;;;;;26.86;40.68;96429.69;10285211;28;20026;-52
2023/08/05 21:51:08;;;;;;;7.70;3.85;;;;;;;26.76;42.36;96468.69;10285789;28;20579;-50
2023/08/05 21:56:07;;;;;;;5.35;3.67;;;;;;;25.98;44.77;96500.09;10283814;28;20045;-48
2023/08/05 22:01:06;;;;;;;5.93;3.40;;;;;;;25.86;44.99;96487.84;10283927;28;20140;-50
2023/08/05 22:06:07;;;;;;;8.68;3.70;;;;;;;25.83;45.09;96488.09;10285529;28;20037;-50
2023/08/05 22:11:09;;;;;;;6.60;3.65;;;;;;;25.81;45.26;96505.97;10282192;28;20133;-49
2023/08/05 22:16:08;;;;;;;8.63;3.50;;;;;;;25.68;45.80;96500.81;10278131;28;20144;-50
2023/08/05 22:21:08;;;;;;;4.57;3.17;;;;;;;25.32;46.76;96493.06;10276865;28;20646;-50
2023/08/05 22:26:07;;;;;;;3.78;3.00;;;;;;;24.86;47.79;96509.97;10283715;28;20148;-51
2023/08/05 22:31:06;;;;;;;5.28;3.15;;;;;;;24.35;48.91;96498.94;10285373;28;20061;-51
2023/08/05 22:36:10;;;;;;;5.80;2.95;;;;;;;24.11;49.57;96483.91;10287056;28;20603;-51
2023/08/05 22:41:09;;;;;;;4.30;3.03;;;;;;;23.83;50.16;96495.75;10283148;28;20579;-51
2023/08/05 22:46:08;;;;;;;4.97;2.80;;;;;;;23.67;51.02;96521.66;10285835;28;20109;-50
2023/08/05 22:51:07;;;;;;;4.43;2.70;;;;;;;23.41;52.27;96490.81;10287550;28;20543;-51
2023/08/05 22:56:06;;;;;;;4.80;2.30;;;;;;;23.33;52.02;96466.72;10287382;28;20511;-51
2023/08/05 23:01:05;;;;;;;5.30;2.83;;;;;;;23.27;52.49;96453.06;10284334;28;20057;-51
2023/08/05 23:06:04;;;;;;;3.90;2.35;;;;;;;23.01;53.41;96469.03;10288153;28;20446;-52